Central Lake, Michigan
Current Conditions -  °F | °C
As of 6:38 AM on Tuesday 21 Oct 2014 (Local Time) from KACB Reporting Station
Overcast Overcast  
Wind Chill: 42°   Ceiling: 2300
Heat Index: 45°   Visibility: 10mi
Dew Point: 38°   Wind: 5mph
Humidity: 77%   Direction: 10°N
Pressure: 30.06"   Gusts: NA
Location:  45.07°N, 85.26°W
Report Text: KACB 211038Z AUTO 01004KT 10SM OVC023 07/03 A3006 RMK AO2 T00700033
Loading
Personal Weather Stations






























Interactive Weather Map
Tropical Storm Tracking
New forecast layout! Learn more

10-Day Weather Forecast

Advertisements
Track Severe Weather on mobile